CCA1285 ZBAA-ZLDH
Flight info
| Callsign | CCA1285 |
|---|---|
| Flight time | N/A |
| Altitude | 27600 |
| Route | IDKEX2G IDKEX B339 ASILA A575 UPREK W28 LAGEB W66 NUKTI DCT DNH |
| Aircraft | A321/M-SDE3FGHIRWY/LB1 |
Departure
| Time | N/A |
|---|---|
| Airport | Beijing Capital International Airport (ZBAA) |
Arrival
| Time | 2026-04-24 13:21 |
|---|---|
| Airport | Dunhuang Mogao International Airport (ZLDH) |
| Time | Latitude | Longitude | Altitude | Speed | Heading |
|---|---|---|---|---|---|
| 2026-04-24 11:16 | 42.19515 | 111.19753 | 27563 ft | 428 kts | 265° |
| 2026-04-24 11:16 | 42.19088 | 111.15748 | 27565 ft | 428 kts | 265° |
| 2026-04-24 11:17 | 42.18666 | 111.11772 | 27547 ft | 428 kts | 266° |
| 2026-04-24 11:17 | 42.18243 | 111.07799 | 27539 ft | 429 kts | 266° |
| 2026-04-24 11:17 | 42.17816 | 111.03814 | 27530 ft | 430 kts | 265° |
| 2026-04-24 11:17 | 42.17383 | 110.99826 | 27535 ft | 430 kts | 265° |
| 2026-04-24 11:18 | 42.16950 | 110.95834 | 27541 ft | 431 kts | 265° |
| 2026-04-24 11:18 | 42.16514 | 110.91829 | 27542 ft | 432 kts | 265° |
| 2026-04-24 11:18 | 42.16077 | 110.87830 | 27540 ft | 432 kts | 265° |
| 2026-04-24 11:18 | 42.15637 | 110.83829 | 27541 ft | 432 kts | 265° |
| 2026-04-24 11:19 | 42.15197 | 110.79815 | 27522 ft | 433 kts | 266° |
| 2026-04-24 11:19 | 42.14755 | 110.75801 | 27527 ft | 434 kts | 266° |
| 2026-04-24 11:19 | 42.14307 | 110.71746 | 27529 ft | 435 kts | 266° |
| 2026-04-24 11:19 | 42.13858 | 110.67731 | 27531 ft | 437 kts | 266° |
| 2026-04-24 11:20 | 42.13406 | 110.63684 | 27532 ft | 437 kts | 266° |
| 2026-04-24 11:20 | 42.12954 | 110.59630 | 27535 ft | 438 kts | 265° |
| 2026-04-24 11:20 | 42.12500 | 110.55582 | 27543 ft | 437 kts | 265° |
| 2026-04-24 11:20 | 42.12042 | 110.51531 | 27547 ft | 437 kts | 265° |
| 2026-04-24 11:21 | 42.11585 | 110.47490 | 27554 ft | 437 kts | 265° |
| 2026-04-24 11:21 | 42.11123 | 110.43446 | 27525 ft | 437 kts | 266° |
| 2026-04-24 11:21 | 42.10660 | 110.39394 | 27523 ft | 439 kts | 266° |
| 2026-04-24 11:21 | 42.10196 | 110.35333 | 27523 ft | 440 kts | 266° |
| 2026-04-24 11:22 | 42.09731 | 110.31253 | 27521 ft | 441 kts | 266° |
| 2026-04-24 11:22 | 42.09265 | 110.27179 | 27523 ft | 442 kts | 266° |
| 2026-04-24 11:22 | 42.08794 | 110.23088 | 27528 ft | 442 kts | 266° |
| 2026-04-24 11:22 | 42.08320 | 110.18994 | 27530 ft | 443 kts | 266° |
| 2026-04-24 11:23 | 42.07846 | 110.14898 | 27530 ft | 443 kts | 266° |
| 2026-04-24 11:23 | 42.07369 | 110.10799 | 27514 ft | 444 kts | 267° |
| 2026-04-24 11:23 | 42.06890 | 110.06692 | 27513 ft | 445 kts | 267° |
| 2026-04-24 11:23 | 42.06411 | 110.02573 | 27517 ft | 446 kts | 267° |
| 2026-04-24 11:24 | 42.05935 | 109.98510 | 27522 ft | 447 kts | 267° |
| 2026-04-24 11:24 | 42.05450 | 109.94380 | 27531 ft | 447 kts | 266° |
| 2026-04-24 11:24 | 42.04961 | 109.90256 | 27537 ft | 447 kts | 266° |
| 2026-04-24 11:24 | 42.04468 | 109.86125 | 27542 ft | 447 kts | 266° |
| 2026-04-24 11:25 | 42.03976 | 109.82003 | 27545 ft | 447 kts | 266° |
| 2026-04-24 11:25 | 42.03485 | 109.77875 | 27522 ft | 446 kts | 267° |
| 2026-04-24 11:25 | 42.02995 | 109.73753 | 27523 ft | 447 kts | 267° |
| 2026-04-24 11:25 | 42.02504 | 109.69628 | 27528 ft | 447 kts | 267° |
| 2026-04-24 11:26 | 42.02011 | 109.65491 | 27528 ft | 448 kts | 267° |
| 2026-04-24 11:26 | 42.01517 | 109.61358 | 27531 ft | 448 kts | 267° |
| 2026-04-24 11:26 | 42.01016 | 109.57217 | 27534 ft | 449 kts | 267° |
| 2026-04-24 11:26 | 42.00512 | 109.53080 | 27537 ft | 449 kts | 267° |
| 2026-04-24 11:27 | 42.00005 | 109.48940 | 27536 ft | 449 kts | 266° |
| 2026-04-24 11:27 | 41.99497 | 109.44803 | 27518 ft | 449 kts | 266° |
| 2026-04-24 11:27 | 41.98987 | 109.40667 | 27531 ft | 448 kts | 266° |
| 2026-04-24 11:27 | 41.98474 | 109.36537 | 27531 ft | 448 kts | 266° |
| 2026-04-24 11:28 | 41.97963 | 109.32405 | 27537 ft | 448 kts | 266° |
| 2026-04-24 11:28 | 41.97452 | 109.28277 | 27538 ft | 448 kts | 267° |
| 2026-04-24 11:28 | 41.96941 | 109.24152 | 27535 ft | 448 kts | 267° |
| 2026-04-24 11:28 | 41.96430 | 109.20025 | 27534 ft | 448 kts | 266° |
| 2026-04-24 11:29 | 41.95915 | 109.15896 | 27532 ft | 448 kts | 266° |
| 2026-04-24 11:29 | 41.95396 | 109.11770 | 27507 ft | 448 kts | 266° |
| 2026-04-24 11:29 | 41.94874 | 109.07645 | 27516 ft | 448 kts | 266° |
| 2026-04-24 11:29 | 41.94350 | 109.03514 | 27528 ft | 448 kts | 266° |
| 2026-04-24 11:30 | 41.94005 | 109.00790 | 27531 ft | 448 kts | 266° |
| 2026-04-24 11:30 | 41.93314 | 108.95326 | 27540 ft | 448 kts | 266° |
| 2026-04-24 11:30 | 41.92791 | 108.91207 | 27538 ft | 448 kts | 266° |
| 2026-04-24 11:30 | 41.92438 | 108.88429 | 27548 ft | 447 kts | 266° |
| 2026-04-24 11:31 | 41.91746 | 108.82965 | 27574 ft | 452 kts | 266° |
| 2026-04-24 11:31 | 41.91217 | 108.78786 | 27883 ft | 455 kts | 266° |
| 2026-04-24 11:31 | 41.90678 | 108.74603 | 28318 ft | 454 kts | 266° |
| 2026-04-24 11:31 | 41.90312 | 108.71787 | 28661 ft | 453 kts | 266° |
| 2026-04-24 11:32 | 41.89586 | 108.66223 | 29309 ft | 451 kts | 266° |
| 2026-04-24 11:32 | 41.89229 | 108.63479 | 29615 ft | 451 kts | 267° |
| 2026-04-24 11:32 | 41.88690 | 108.59336 | 29991 ft | 451 kts | 267° |
| 2026-04-24 11:32 | 41.88150 | 108.55180 | 30052 ft | 451 kts | 267° |
| 2026-04-24 11:33 | 41.87068 | 108.46898 | 30053 ft | 450 kts | 267° |
| 2026-04-24 11:33 | 41.85977 | 108.38631 | 30047 ft | 450 kts | 267° |
| 2026-04-24 11:34 | 41.84882 | 108.30379 | 30050 ft | 449 kts | 267° |
| 2026-04-24 11:34 | 41.83779 | 108.22129 | 30051 ft | 449 kts | 267° |
| 2026-04-24 11:35 | 41.82687 | 108.13940 | 30049 ft | 449 kts | 266° |
| 2026-04-24 11:35 | 41.81574 | 108.05701 | 30050 ft | 449 kts | 266° |
| 2026-04-24 11:36 | 41.80454 | 107.97472 | 30046 ft | 448 kts | 266° |
| 2026-04-24 11:36 | 41.79336 | 107.89256 | 30043 ft | 448 kts | 266° |
| 2026-04-24 11:37 | 41.78208 | 107.81038 | 30044 ft | 448 kts | 266° |
| 2026-04-24 11:37 | 41.77076 | 107.72824 | 30024 ft | 448 kts | 266° |
| 2026-04-24 11:38 | 41.75942 | 107.64615 | 30039 ft | 448 kts | 266° |
| 2026-04-24 11:38 | 41.74801 | 107.56418 | 30048 ft | 447 kts | 266° |
| 2026-04-24 11:39 | 41.73650 | 107.48232 | 30053 ft | 447 kts | 266° |
| 2026-04-24 11:39 | 41.72491 | 107.40048 | 30050 ft | 447 kts | 266° |
| 2026-04-24 11:40 | 41.71334 | 107.31875 | 30048 ft | 446 kts | 265° |
| 2026-04-24 11:40 | 41.70174 | 107.23718 | 30052 ft | 446 kts | 265° |
| 2026-04-24 11:41 | 41.69006 | 107.15562 | 30044 ft | 446 kts | 265° |
| 2026-04-24 11:41 | 41.67831 | 107.07412 | 30044 ft | 447 kts | 265° |
| 2026-04-24 11:42 | 41.66651 | 106.99256 | 30037 ft | 446 kts | 265° |
| 2026-04-24 11:42 | 41.65466 | 106.91123 | 30054 ft | 445 kts | 265° |
| 2026-04-24 11:43 | 41.64278 | 106.83005 | 30055 ft | 445 kts | 265° |
| 2026-04-24 11:43 | 41.63085 | 106.74893 | 30049 ft | 445 kts | 265° |
| 2026-04-24 11:44 | 41.61886 | 106.66784 | 30067 ft | 444 kts | 264° |
| 2026-04-24 11:44 | 41.60688 | 106.58702 | 30049 ft | 443 kts | 264° |
| 2026-04-24 11:45 | 41.59490 | 106.50644 | 30047 ft | 442 kts | 264° |
| 2026-04-24 11:45 | 41.58283 | 106.42585 | 30049 ft | 442 kts | 264° |
| 2026-04-24 11:46 | 41.57065 | 106.34537 | 30020 ft | 442 kts | 264° |
| 2026-04-24 11:46 | 41.55841 | 106.26502 | 30037 ft | 441 kts | 264° |
| 2026-04-24 11:47 | 41.54622 | 106.18489 | 30036 ft | 440 kts | 264° |
| 2026-04-24 11:47 | 41.53357 | 106.10494 | 30049 ft | 442 kts | 259° |
| 2026-04-24 11:48 | 41.51191 | 106.02816 | 30034 ft | 446 kts | 253° |
| 2026-04-24 11:48 | 41.48866 | 105.95143 | 30019 ft | 445 kts | 253° |
| 2026-04-24 11:49 | 41.46554 | 105.87488 | 30020 ft | 445 kts | 253° |
| 2026-04-24 11:49 | 41.44240 | 105.79844 | 30023 ft | 444 kts | 253° |
| 2026-04-24 11:50 | 41.41923 | 105.72218 | 30020 ft | 444 kts | 253° |
| 2026-04-24 11:50 | 41.39598 | 105.64595 | 30020 ft | 444 kts | 253° |
| 2026-04-24 11:51 | 41.37267 | 105.56993 | 30023 ft | 443 kts | 253° |
| 2026-04-24 11:51 | 41.34918 | 105.49426 | 30009 ft | 442 kts | 253° |
| 2026-04-24 11:52 | 41.32564 | 105.41885 | 30010 ft | 441 kts | 253° |
| 2026-04-24 11:52 | 41.30210 | 105.34353 | 30013 ft | 441 kts | 253° |
| 2026-04-24 11:53 | 41.27864 | 105.26818 | 30002 ft | 441 kts | 253° |
| 2026-04-24 11:53 | 41.25503 | 105.19308 | 30022 ft | 440 kts | 253° |
| 2026-04-24 11:54 | 41.23135 | 105.11818 | 30024 ft | 439 kts | 253° |
| 2026-04-24 11:54 | 41.20780 | 105.04340 | 30016 ft | 439 kts | 253° |
| 2026-04-24 11:55 | 41.18430 | 104.96875 | 30014 ft | 438 kts | 253° |
| 2026-04-24 11:55 | 41.16065 | 104.89418 | 29998 ft | 438 kts | 253° |
| 2026-04-24 11:56 | 41.13696 | 104.81972 | 30005 ft | 438 kts | 253° |
| 2026-04-24 11:56 | 41.11314 | 104.74524 | 30008 ft | 439 kts | 253° |
| 2026-04-24 11:57 | 41.08943 | 104.67075 | 30012 ft | 438 kts | 253° |
| 2026-04-24 11:57 | 41.06682 | 104.59643 | 30015 ft | 438 kts | 254° |
| 2026-04-24 11:58 | 41.04410 | 104.52104 | 30012 ft | 437 kts | 254° |
| 2026-04-24 11:58 | 41.02139 | 104.44627 | 30018 ft | 437 kts | 254° |
| 2026-04-24 11:59 | 40.99971 | 104.37131 | 30018 ft | 431 kts | 261° |
| 2026-04-24 11:59 | 40.99400 | 104.29463 | 30014 ft | 417 kts | 279° |
| 2026-04-24 12:00 | 41.00714 | 104.22141 | 30012 ft | 406 kts | 295° |
| 2026-04-24 12:00 | 41.02758 | 104.15152 | 29982 ft | 408 kts | 295° |
| 2026-04-24 12:01 | 41.04779 | 104.08112 | 29983 ft | 409 kts | 294° |
| 2026-04-24 12:01 | 41.06799 | 104.01054 | 29984 ft | 410 kts | 294° |
| 2026-04-24 12:02 | 41.08827 | 103.93978 | 29988 ft | 411 kts | 294° |
| 2026-04-24 12:02 | 41.10849 | 103.86889 | 29986 ft | 411 kts | 294° |
| 2026-04-24 12:03 | 41.12861 | 103.79785 | 29978 ft | 412 kts | 294° |
| 2026-04-24 12:03 | 41.14880 | 103.72654 | 29975 ft | 413 kts | 294° |
| 2026-04-24 12:04 | 41.16902 | 103.65514 | 29986 ft | 414 kts | 294° |
| 2026-04-24 12:04 | 41.18933 | 103.58357 | 29995 ft | 414 kts | 293° |
| 2026-04-24 12:05 | 41.20954 | 103.51188 | 29994 ft | 415 kts | 293° |
| 2026-04-24 12:05 | 41.22961 | 103.44017 | 29987 ft | 414 kts | 293° |
| 2026-04-24 12:06 | 41.24971 | 103.36848 | 29986 ft | 414 kts | 293° |
| 2026-04-24 12:06 | 41.26971 | 103.29676 | 29992 ft | 414 kts | 292° |
| 2026-04-24 12:07 | 41.28962 | 103.22500 | 29993 ft | 414 kts | 293° |
| 2026-04-24 12:07 | 41.30949 | 103.15318 | 29990 ft | 414 kts | 292° |
| 2026-04-24 12:08 | 41.32939 | 103.08132 | 29974 ft | 414 kts | 293° |
| 2026-04-24 12:08 | 41.34929 | 103.00928 | 29973 ft | 415 kts | 293° |
| 2026-04-24 12:09 | 41.36948 | 102.93720 | 29974 ft | 416 kts | 294° |
| 2026-04-24 12:09 | 41.39030 | 102.86536 | 29968 ft | 416 kts | 294° |
| 2026-04-24 12:10 | 41.41115 | 102.79351 | 29971 ft | 416 kts | 294° |
| 2026-04-24 12:11 | 41.44232 | 102.68531 | 29953 ft | 418 kts | 294° |
| 2026-04-24 12:11 | 41.46317 | 102.61288 | 29954 ft | 419 kts | 294° |
| 2026-04-24 12:12 | 41.48397 | 102.54030 | 29958 ft | 419 kts | 294° |
| 2026-04-24 12:12 | 41.50478 | 102.46761 | 29959 ft | 420 kts | 294° |
| 2026-04-24 12:13 | 41.52564 | 102.39478 | 29948 ft | 420 kts | 294° |
| 2026-04-24 12:13 | 41.54641 | 102.32188 | 29960 ft | 420 kts | 294° |
| 2026-04-24 12:14 | 41.56357 | 102.26137 | 29962 ft | 420 kts | 294° |
| 2026-04-24 12:14 | 41.58772 | 102.17604 | 29963 ft | 420 kts | 294° |
| 2026-04-24 12:15 | 41.60835 | 102.10303 | 29960 ft | 420 kts | 294° |
| 2026-04-24 12:15 | 41.62893 | 102.03004 | 29945 ft | 420 kts | 293° |
| 2026-04-24 12:16 | 41.64590 | 101.96947 | 29961 ft | 418 kts | 293° |
| 2026-04-24 12:16 | 41.66617 | 101.89671 | 29975 ft | 417 kts | 293° |
| 2026-04-24 12:17 | 41.68643 | 101.82420 | 29972 ft | 416 kts | 293° |
| 2026-04-24 12:17 | 41.70662 | 101.75177 | 29970 ft | 415 kts | 293° |
| 2026-04-24 12:18 | 41.72671 | 101.67938 | 29969 ft | 415 kts | 293° |
| 2026-04-24 12:18 | 41.74674 | 101.60709 | 29969 ft | 413 kts | 293° |
| 2026-04-24 12:19 | 41.76661 | 101.53491 | 29973 ft | 412 kts | 292° |
| 2026-04-24 12:19 | 41.78644 | 101.46293 | 29969 ft | 411 kts | 293° |
| 2026-04-24 12:20 | 41.80618 | 101.39103 | 29951 ft | 411 kts | 292° |
| 2026-04-24 12:20 | 41.82565 | 101.31957 | 29947 ft | 411 kts | 292° |
| 2026-04-24 12:21 | 41.84498 | 101.24760 | 29936 ft | 411 kts | 289° |
| 2026-04-24 12:21 | 41.85273 | 101.17088 | 29945 ft | 416 kts | 276° |
| 2026-04-24 12:22 | 41.85454 | 101.09323 | 29946 ft | 416 kts | 276° |
| 2026-04-24 12:22 | 41.85632 | 101.01616 | 29942 ft | 416 kts | 276° |
| 2026-04-24 12:23 | 41.85814 | 100.93857 | 29927 ft | 416 kts | 276° |
| 2026-04-24 12:23 | 41.85997 | 100.86099 | 29933 ft | 416 kts | 276° |
| 2026-04-24 12:24 | 41.86167 | 100.78336 | 29930 ft | 416 kts | 276° |
| 2026-04-24 12:24 | 41.86335 | 100.70572 | 29925 ft | 416 kts | 276° |
| 2026-04-24 12:25 | 41.86498 | 100.62806 | 29935 ft | 417 kts | 276° |
| 2026-04-24 12:25 | 41.86653 | 100.55028 | 29918 ft | 417 kts | 276° |
| 2026-04-24 12:26 | 41.86805 | 100.47257 | 29926 ft | 416 kts | 276° |
| 2026-04-24 12:26 | 41.86954 | 100.39502 | 29927 ft | 416 kts | 276° |
| 2026-04-24 12:27 | 41.87093 | 100.31800 | 29928 ft | 415 kts | 276° |
| 2026-04-24 12:27 | 41.87229 | 100.24053 | 29920 ft | 416 kts | 276° |
| 2026-04-24 12:28 | 41.87359 | 100.16296 | 29900 ft | 416 kts | 276° |
| 2026-04-24 12:28 | 41.87482 | 100.08516 | 29906 ft | 418 kts | 276° |
| 2026-04-24 12:29 | 41.87599 | 100.00716 | 29910 ft | 418 kts | 276° |
| 2026-04-24 12:29 | 41.87710 | 99.92906 | 29907 ft | 419 kts | 276° |
| 2026-04-24 12:30 | 41.87823 | 99.85092 | 29908 ft | 419 kts | 276° |
| 2026-04-24 12:30 | 41.87931 | 99.77266 | 29904 ft | 420 kts | 276° |
| 2026-04-24 12:31 | 41.88030 | 99.69417 | 29911 ft | 421 kts | 276° |
| 2026-04-24 12:31 | 41.88122 | 99.61550 | 29913 ft | 422 kts | 276° |
| 2026-04-24 12:32 | 41.88211 | 99.53676 | 29919 ft | 422 kts | 276° |
| 2026-04-24 12:32 | 41.88292 | 99.45794 | 29910 ft | 423 kts | 276° |
| 2026-04-24 12:33 | 41.88367 | 99.37913 | 29919 ft | 423 kts | 276° |
| 2026-04-24 12:33 | 41.88442 | 99.30024 | 29923 ft | 422 kts | 277° |
| 2026-04-24 12:34 | 41.88511 | 99.22145 | 29932 ft | 423 kts | 276° |
| 2026-04-24 12:34 | 41.88573 | 99.14260 | 29934 ft | 423 kts | 276° |
| 2026-04-24 12:35 | 41.88633 | 99.06370 | 29926 ft | 423 kts | 276° |
| 2026-04-24 12:35 | 41.88673 | 98.98472 | 29935 ft | 423 kts | 276° |
| 2026-04-24 12:36 | 41.88722 | 98.90590 | 29943 ft | 422 kts | 276° |
| 2026-04-24 12:36 | 41.88765 | 98.82712 | 29944 ft | 422 kts | 276° |
| 2026-04-24 12:37 | 41.88798 | 98.74833 | 29947 ft | 422 kts | 276° |
| 2026-04-24 12:37 | 41.88835 | 98.66961 | 29941 ft | 422 kts | 276° |
| 2026-04-24 12:38 | 41.88854 | 98.59094 | 29946 ft | 422 kts | 276° |
| 2026-04-24 12:38 | 41.88872 | 98.51225 | 29947 ft | 422 kts | 276° |
| 2026-04-24 12:39 | 41.88898 | 98.35487 | 29933 ft | 422 kts | 276° |
| 2026-04-24 12:40 | 41.88898 | 98.27622 | 29933 ft | 421 kts | 276° |
| 2026-04-24 12:40 | 41.88902 | 98.19762 | 29941 ft | 421 kts | 276° |
| 2026-04-24 12:41 | 41.88894 | 98.11895 | 29961 ft | 421 kts | 275° |
| 2026-04-24 12:41 | 41.88873 | 98.04028 | 29954 ft | 422 kts | 275° |
| 2026-04-24 12:42 | 41.88844 | 97.96153 | 29945 ft | 422 kts | 275° |
| 2026-04-24 12:42 | 41.88822 | 97.88292 | 29962 ft | 421 kts | 275° |
| 2026-04-24 12:43 | 41.88803 | 97.80448 | 29967 ft | 420 kts | 275° |
| 2026-04-24 12:43 | 41.88769 | 97.72616 | 29971 ft | 419 kts | 275° |
| 2026-04-24 12:44 | 41.88726 | 97.64792 | 29967 ft | 419 kts | 275° |
| 2026-04-24 12:44 | 41.88683 | 97.57029 | 29959 ft | 419 kts | 274° |
| 2026-04-24 12:45 | 41.88632 | 97.49234 | 29982 ft | 417 kts | 273° |
| 2026-04-24 12:45 | 41.88578 | 97.41427 | 29989 ft | 415 kts | 273° |
| 2026-04-24 12:46 | 41.88516 | 97.33693 | 29988 ft | 414 kts | 273° |
| 2026-04-24 12:46 | 41.88450 | 97.25982 | 29992 ft | 413 kts | 273° |
| 2026-04-24 12:47 | 41.88384 | 97.18286 | 29987 ft | 413 kts | 273° |
| 2026-04-24 12:47 | 41.88313 | 97.10639 | 29989 ft | 413 kts | 273° |
| 2026-04-24 12:48 | 41.88232 | 97.02942 | 29987 ft | 412 kts | 273° |
| 2026-04-24 12:48 | 41.88142 | 96.95246 | 29989 ft | 412 kts | 273° |
| 2026-04-24 12:49 | 41.88059 | 96.87554 | 29988 ft | 412 kts | 273° |
| 2026-04-24 12:49 | 41.88012 | 96.83702 | 29736 ft | 413 kts | 272° |
| 2026-04-24 12:49 | 41.87961 | 96.79851 | 29459 ft | 412 kts | 272° |
| 2026-04-24 12:49 | 41.87908 | 96.76011 | 29184 ft | 412 kts | 272° |
| 2026-04-24 12:50 | 41.87855 | 96.72157 | 28914 ft | 413 kts | 272° |
| 2026-04-24 12:50 | 41.87798 | 96.68296 | 28648 ft | 415 kts | 271° |
| 2026-04-24 12:50 | 41.87741 | 96.64421 | 28383 ft | 416 kts | 271° |
| 2026-04-24 12:50 | 41.87685 | 96.60536 | 28118 ft | 417 kts | 271° |
| 2026-04-24 12:51 | 41.87631 | 96.56638 | 27857 ft | 419 kts | 271° |
| 2026-04-24 12:51 | 41.87577 | 96.52728 | 27607 ft | 420 kts | 271° |
| 2026-04-24 12:51 | 41.87520 | 96.48806 | 27350 ft | 421 kts | 271° |
| 2026-04-24 12:51 | 41.87458 | 96.44872 | 27084 ft | 422 kts | 271° |
| 2026-04-24 12:52 | 41.87392 | 96.40933 | 26826 ft | 423 kts | 271° |
| 2026-04-24 12:52 | 41.87324 | 96.36987 | 26590 ft | 423 kts | 271° |
| 2026-04-24 12:52 | 41.87257 | 96.33035 | 26342 ft | 425 kts | 271° |
| 2026-04-24 12:52 | 41.87188 | 96.29068 | 26096 ft | 426 kts | 271° |
| 2026-04-24 12:53 | 41.87117 | 96.25096 | 25847 ft | 426 kts | 271° |
| 2026-04-24 12:53 | 41.87057 | 96.21129 | 25616 ft | 425 kts | 271° |
| 2026-04-24 12:53 | 41.87030 | 96.17175 | 25475 ft | 423 kts | 272° |
| 2026-04-24 12:53 | 41.87020 | 96.13220 | 25515 ft | 424 kts | 272° |
| 2026-04-24 12:54 | 41.87014 | 96.09259 | 25515 ft | 425 kts | 272° |
| 2026-04-24 12:54 | 41.87007 | 96.05303 | 25514 ft | 423 kts | 271° |
| 2026-04-24 12:54 | 41.86992 | 96.01361 | 25515 ft | 422 kts | 271° |
| 2026-04-24 12:54 | 41.86970 | 95.97422 | 25515 ft | 422 kts | 271° |
| 2026-04-24 12:55 | 41.86942 | 95.93486 | 25510 ft | 422 kts | 271° |
| 2026-04-24 12:55 | 41.86908 | 95.89554 | 25509 ft | 422 kts | 271° |
| 2026-04-24 12:55 | 41.86872 | 95.85620 | 25509 ft | 421 kts | 271° |
| 2026-04-24 12:55 | 41.86836 | 95.81687 | 25510 ft | 422 kts | 271° |
| 2026-04-24 12:56 | 41.86802 | 95.77756 | 25502 ft | 422 kts | 271° |
| 2026-04-24 12:56 | 41.86768 | 95.73824 | 25504 ft | 422 kts | 271° |
| 2026-04-24 12:56 | 41.86735 | 95.69891 | 25499 ft | 421 kts | 270° |
| 2026-04-24 12:56 | 41.86700 | 95.65970 | 25503 ft | 419 kts | 270° |
| 2026-04-24 12:57 | 41.86664 | 95.62066 | 25495 ft | 419 kts | 270° |
| 2026-04-24 12:57 | 41.86626 | 95.58158 | 25496 ft | 418 kts | 270° |
| 2026-04-24 12:57 | 41.86586 | 95.54258 | 25496 ft | 418 kts | 270° |
| 2026-04-24 12:57 | 41.86541 | 95.50360 | 25495 ft | 418 kts | 270° |
| 2026-04-24 12:58 | 41.86494 | 95.46460 | 25488 ft | 418 kts | 270° |
| 2026-04-24 12:58 | 41.86449 | 95.42714 | 25487 ft | 418 kts | 270° |
| 2026-04-24 12:58 | 41.86400 | 95.38761 | 25487 ft | 418 kts | 270° |
| 2026-04-24 12:58 | 41.86352 | 95.34868 | 25488 ft | 418 kts | 270° |
| 2026-04-24 12:59 | 41.86281 | 95.30965 | 25469 ft | 419 kts | 266° |
| 2026-04-24 12:59 | 41.85709 | 95.27251 | 25476 ft | 421 kts | 252° |
| 2026-04-24 12:59 | 41.84356 | 95.23766 | 25476 ft | 426 kts | 237° |
| 2026-04-24 12:59 | 41.82298 | 95.20886 | 25476 ft | 433 kts | 221° |
| 2026-04-24 13:00 | 41.79660 | 95.18874 | 25477 ft | 442 kts | 205° |
| 2026-04-24 13:00 | 41.77686 | 95.18123 | 25479 ft | 449 kts | 195° |
| 2026-04-24 13:00 | 41.73593 | 95.17238 | 25470 ft | 451 kts | 193° |
| 2026-04-24 13:00 | 41.70505 | 95.16596 | 25138 ft | 450 kts | 193° |
| 2026-04-24 13:01 | 41.67411 | 95.15959 | 24782 ft | 447 kts | 193° |
| 2026-04-24 13:01 | 41.64349 | 95.15332 | 24423 ft | 444 kts | 193° |
| 2026-04-24 13:01 | 41.61301 | 95.14702 | 24079 ft | 442 kts | 193° |
| 2026-04-24 13:01 | 41.58269 | 95.14069 | 23739 ft | 440 kts | 193° |
| 2026-04-24 13:02 | 41.55254 | 95.13441 | 23393 ft | 438 kts | 193° |
| 2026-04-24 13:02 | 41.53223 | 95.13017 | 23123 ft | 436 kts | 193° |
| 2026-04-24 13:02 | 41.50270 | 95.12395 | 22731 ft | 434 kts | 193° |
| 2026-04-24 13:02 | 41.47256 | 95.11760 | 22457 ft | 433 kts | 193° |
| 2026-04-24 13:03 | 41.44324 | 95.11145 | 22463 ft | 433 kts | 192° |
| 2026-04-24 13:03 | 41.41302 | 95.10513 | 22474 ft | 434 kts | 192° |
| 2026-04-24 13:03 | 41.38321 | 95.09893 | 22473 ft | 434 kts | 192° |
| 2026-04-24 13:03 | 41.35335 | 95.09270 | 22467 ft | 434 kts | 192° |
| 2026-04-24 13:04 | 41.32345 | 95.08647 | 22272 ft | 434 kts | 192° |
| 2026-04-24 13:04 | 41.29409 | 95.08035 | 22013 ft | 432 kts | 192° |
| 2026-04-24 13:04 | 41.26405 | 95.07410 | 21753 ft | 431 kts | 192° |
| 2026-04-24 13:04 | 41.23449 | 95.06796 | 21262 ft | 429 kts | 192° |
| 2026-04-24 13:05 | 41.20547 | 95.06197 | 20783 ft | 427 kts | 192° |
| 2026-04-24 13:05 | 41.17581 | 95.05583 | 20290 ft | 424 kts | 192° |
| 2026-04-24 13:05 | 41.14673 | 95.04982 | 19806 ft | 422 kts | 191° |
| 2026-04-24 13:05 | 41.11776 | 95.04383 | 19334 ft | 420 kts | 191° |
| 2026-04-24 13:06 | 41.08893 | 95.03785 | 18872 ft | 418 kts | 191° |
| 2026-04-24 13:06 | 41.06025 | 95.03191 | 18407 ft | 416 kts | 191° |
| 2026-04-24 13:06 | 41.03175 | 95.02601 | 17928 ft | 414 kts | 191° |
| 2026-04-24 13:06 | 41.00336 | 95.02016 | 17408 ft | 411 kts | 191° |
| 2026-04-24 13:07 | 40.97525 | 95.01438 | 16889 ft | 407 kts | 191° |
| 2026-04-24 13:07 | 40.94735 | 95.00865 | 16382 ft | 404 kts | 191° |
| 2026-04-24 13:07 | 40.91974 | 95.00301 | 15899 ft | 400 kts | 190° |
| 2026-04-24 13:07 | 40.89235 | 94.99739 | 15407 ft | 397 kts | 191° |
| 2026-04-24 13:08 | 40.86517 | 94.99179 | 14929 ft | 393 kts | 190° |
| 2026-04-24 13:08 | 40.83827 | 94.98621 | 14565 ft | 390 kts | 190° |
| 2026-04-24 13:08 | 40.81186 | 94.98075 | 14306 ft | 389 kts | 190° |
| 2026-04-24 13:09 | 40.75870 | 94.96986 | 13729 ft | 384 kts | 190° |
| 2026-04-24 13:09 | 40.73266 | 94.96455 | 13427 ft | 373 kts | 190° |
| 2026-04-24 13:09 | 40.70735 | 94.95937 | 13104 ft | 363 kts | 189° |
| 2026-04-24 13:09 | 40.68270 | 94.95433 | 12798 ft | 354 kts | 190° |
| 2026-04-24 13:10 | 40.65863 | 94.94944 | 12503 ft | 346 kts | 190° |
| 2026-04-24 13:10 | 40.63504 | 94.94463 | 12200 ft | 342 kts | 190° |
| 2026-04-24 13:10 | 40.61162 | 94.93982 | 11892 ft | 340 kts | 190° |
| 2026-04-24 13:10 | 40.58874 | 94.93250 | 11638 ft | 338 kts | 199° |
| 2026-04-24 13:11 | 40.56711 | 94.92019 | 11418 ft | 339 kts | 209° |
| 2026-04-24 13:11 | 40.54738 | 94.90321 | 11167 ft | 340 kts | 219° |
| 2026-04-24 13:11 | 40.52938 | 94.88300 | 10928 ft | 341 kts | 221° |
| 2026-04-24 13:11 | 40.51142 | 94.86262 | 10690 ft | 341 kts | 221° |
| 2026-04-24 13:12 | 40.49351 | 94.84239 | 10455 ft | 337 kts | 221° |
| 2026-04-24 13:12 | 40.47594 | 94.82261 | 10214 ft | 328 kts | 221° |
| 2026-04-24 13:12 | 40.45881 | 94.80333 | 9973 ft | 320 kts | 221° |
| 2026-04-24 13:12 | 40.44211 | 94.78454 | 9747 ft | 312 kts | 220° |
| 2026-04-24 13:13 | 40.42581 | 94.76623 | 9504 ft | 305 kts | 220° |
| 2026-04-24 13:13 | 40.40987 | 94.74832 | 9248 ft | 299 kts | 220° |
| 2026-04-24 13:13 | 40.39426 | 94.73077 | 8994 ft | 292 kts | 220° |
| 2026-04-24 13:13 | 40.37899 | 94.71363 | 8746 ft | 286 kts | 220° |
| 2026-04-24 13:14 | 40.36405 | 94.69686 | 8504 ft | 280 kts | 220° |
| 2026-04-24 13:14 | 40.34942 | 94.68045 | 8256 ft | 274 kts | 220° |
| 2026-04-24 13:14 | 40.33513 | 94.66441 | 8014 ft | 268 kts | 220° |
| 2026-04-24 13:14 | 40.32106 | 94.64868 | 7772 ft | 263 kts | 219° |
| 2026-04-24 13:15 | 40.30725 | 94.63327 | 7523 ft | 258 kts | 219° |
| 2026-04-24 13:15 | 40.29370 | 94.61815 | 7294 ft | 254 kts | 219° |
| 2026-04-24 13:15 | 40.28037 | 94.60326 | 7063 ft | 250 kts | 219° |
| 2026-04-24 13:15 | 40.26715 | 94.58917 | 6912 ft | 240 kts | 212° |
| 2026-04-24 13:16 | 40.25253 | 94.57932 | 6901 ft | 234 kts | 198° |
| 2026-04-24 13:16 | 40.23680 | 94.57433 | 6839 ft | 233 kts | 184° |
| 2026-04-24 13:16 | 40.22077 | 94.57425 | 6731 ft | 229 kts | 171° |
| 2026-04-24 13:16 | 40.20492 | 94.57651 | 6614 ft | 228 kts | 172° |
| 2026-04-24 13:17 | 40.18962 | 94.57857 | 6476 ft | 214 kts | 172° |
| 2026-04-24 13:17 | 40.17503 | 94.58052 | 6245 ft | 207 kts | 171° |
| 2026-04-24 13:17 | 40.16165 | 94.58607 | 6009 ft | 200 kts | 146° |
| 2026-04-24 13:17 | 40.15194 | 94.59868 | 5907 ft | 197 kts | 120° |
| 2026-04-24 13:18 | 40.14726 | 94.61524 | 5901 ft | 195 kts | 97° |
| 2026-04-24 13:18 | 40.14760 | 94.63295 | 5858 ft | 195 kts | 84° |
| 2026-04-24 13:18 | 40.14900 | 94.64988 | 5676 ft | 181 kts | 83° |
| 2026-04-24 13:18 | 40.15030 | 94.66584 | 5468 ft | 175 kts | 83° |
| 2026-04-24 13:19 | 40.15155 | 94.68143 | 5278 ft | 166 kts | 83° |
| 2026-04-24 13:19 | 40.15274 | 94.69620 | 5055 ft | 160 kts | 84° |
| 2026-04-24 13:19 | 40.15383 | 94.70999 | 4877 ft | 149 kts | 83° |
| 2026-04-24 13:19 | 40.15490 | 94.72332 | 4714 ft | 147 kts | 84° |
| 2026-04-24 13:20 | 40.15594 | 94.73645 | 4549 ft | 144 kts | 83° |
| 2026-04-24 13:20 | 40.15698 | 94.74947 | 4303 ft | 144 kts | 85° |
| 2026-04-24 13:20 | 40.15799 | 94.76252 | 4121 ft | 144 kts | 84° |
| 2026-04-24 13:20 | 40.15904 | 94.77558 | 3941 ft | 144 kts | 84° |
| 2026-04-24 13:21 | 40.16006 | 94.78857 | 3768 ft | 143 kts | 84° |
| 2026-04-24 13:21 | 40.16107 | 94.80118 | 3687 ft | 125 kts | 84° |
| 2026-04-24 13:21 | 40.16163 | 94.80851 | 3693 ft | 38 kts | 84° |
| 2026-04-24 13:21 | 40.16181 | 94.81078 | 3691 ft | 24 kts | 84° |
| 2026-04-24 13:22 | 40.16196 | 94.81272 | 3690 ft | 17 kts | 84° |
| 2026-04-24 13:22 | 40.16247 | 94.81339 | 3691 ft | 10 kts | 358° |
| 2026-04-24 13:22 | 40.16303 | 94.81333 | 3693 ft | 6 kts | 355° |
| 2026-04-24 13:22 | 40.16335 | 94.81328 | 3694 ft | 4 kts | 354° |
| 2026-04-24 13:23 | 40.16364 | 94.81324 | 3695 ft | 4 kts | 354° |
| 2026-04-24 13:23 | 40.16399 | 94.81319 | 3695 ft | 7 kts | 354° |
| 2026-04-24 13:23 | 40.16446 | 94.81288 | 3695 ft | 9 kts | 296° |
| 2026-04-24 13:23 | 40.16442 | 94.81181 | 3702 ft | 13 kts | 264° |
| 2026-04-24 13:24 | 40.16432 | 94.81065 | 3695 ft | 12 kts | 264° |
| 2026-04-24 13:24 | 40.16424 | 94.80960 | 3695 ft | 11 kts | 265° |
| 2026-04-24 13:24 | 40.16417 | 94.80865 | 3695 ft | 10 kts | 264° |
| 2026-04-24 13:24 | 40.16411 | 94.80781 | 3695 ft | 9 kts | 264° |
| 2026-04-24 13:25 | 40.16405 | 94.80709 | 3695 ft | 7 kts | 264° |
| 2026-04-24 13:25 | 40.16403 | 94.80648 | 3695 ft | 6 kts | 283° |
| 2026-04-24 13:25 | 40.16426 | 94.80618 | 3695 ft | 4 kts | 334° |
| 2026-04-24 13:25 | 40.16469 | 94.80609 | 3696 ft | 6 kts | 354° |
| 2026-04-24 13:26 | 40.16498 | 94.80605 | 3700 ft | 2 kts | 354° |
| 2026-04-24 13:26 | 40.16502 | 94.80604 | 3696 ft | 0 kts | 353° |